Time;durP1;ratioP1;P1;durP2;ratioP2;P2;SDS_P1;SDS_P2;PMS_P1;PMS_P2;Temp;Humidity;BMP_temperature;BMP_pressure;BME280_temperature;BME280_humidity;BME280_pressure;Samples;Min_cycle;Max_cycle;Signal;HPM_P1;HPM_P2
2022/02/10 00:13:51;;;;;;;;;50.25;42.50;;;;;7.90;69.72;102044.25;5073634;28;50032;-65
2022/02/10 00:21:17;;;;;;;;;55.00;41.00;;;;;8.18;68.79;102088.41;5072700;28;49993;-65
2022/02/10 00:34:45;;;;;;;;;53.00;42.50;;;;;8.16;68.90;102102.25;5072676;28;50070;-65
2022/02/10 00:37:13;;;;;;;;;49.50;43.50;;;;;8.06;69.29;102093.00;5072345;28;49871;-65
2022/02/10 00:42:10;;;;;;;;;49.25;40.75;;;;;7.68;69.82;102007.34;5072549;28;50152;-64
2022/02/10 00:44:37;;;;;;;;;51.00;43.00;;;;;8.12;69.07;102079.38;5072668;28;49729;-65
2022/02/10 00:47:03;;;;;;;;;55.75;44.75;;;;;8.20;70.26;102105.09;5072122;27;50513;-64
2022/02/10 00:49:28;;;;;;;;;58.50;46.75;;;;;8.21;69.54;102100.78;5072252;28;49797;-65
2022/02/10 00:51:55;;;;;;;;;51.75;42.25;;;;;8.11;70.29;102075.88;5072142;27;49844;-65
2022/02/10 00:54:24;;;;;;;;;54.50;41.25;;;;;8.08;70.34;102066.94;5072307;28;49699;-66
2022/02/10 00:56:50;;;;;;;;;52.75;43.00;;;;;8.21;70.19;102099.06;5071980;28;49917;-66
2022/02/10 01:10:28;;;;;;;;;52.50;44.75;;;;;8.18;70.28;102079.66;5071926;28;49741;-67
2022/02/10 01:29:41;;;;;;;;;57.50;44.00;;;;;8.29;69.54;102105.56;5071361;27;50260;-66
2022/02/10 01:32:07;;;;;;;;;57.50;45.50;;;;;8.21;69.65;102092.94;5071401;28;49740;-66
2022/02/10 01:34:37;;;;;;;;;51.75;43.50;;;;;8.28;70.87;102100.25;5071760;28;49833;-66
2022/02/10 01:37:03;;;;;;;;;51.00;43.00;;;;;8.11;70.77;102068.00;5071552;28;49751;-67
2022/02/10 01:39:34;;;;;;;;;53.75;43.50;;;;;8.29;70.38;102116.00;5071439;28;49694;-66
2022/02/10 01:42:33;;;;;;;;;24.50;21.00;;;;;8.31;69.83;102108.28;5071388;28;49754;-66
2022/02/10 02:03:44;;;;;;;;;42.50;37.50;;;;;8.14;70.92;102070.78;5071025;28;49678;-65
2022/02/10 02:06:20;;;;;;;;;52.50;44.50;;;;;8.34;71.02;102105.81;5071183;28;49617;-66
2022/02/10 02:08:45;;;;;;;;;43.75;37.25;;;;;8.12;71.12;102056.72;5071394;28;49907;-65
2022/02/10 02:11:11;;;;;;;;;51.00;40.00;;;;;8.20;71.10;102071.09;5070777;28;49782;-66
2022/02/10 02:13:36;;;;;;;;;38.50;35.50;;;;;8.32;71.20;102090.03;5070992;28;50361;-65
2022/02/10 02:16:03;;;;;;;;;54.75;43.25;;;;;8.19;70.88;102069.28;5070808;28;49979;-65
2022/02/10 02:18:28;;;;;;;;;48.25;42.25;;;;;8.35;71.18;102101.50;5070939;27;49788;-66
2022/02/10 02:20:56;;;;;;;;;38.25;37.00;;;;;8.39;70.71;102106.06;5070665;28;50059;-65
2022/02/10 02:23:24;;;;;;;;;42.50;37.75;;;;;8.38;70.52;102097.31;5070891;28;49618;-65
2022/02/10 02:25:55;;;;;;;;;50.00;37.50;;;;;8.32;71.16;102103.13;5070672;28;49632;-66
2022/02/10 02:28:20;;;;;;;;;41.00;37.00;;;;;8.32;71.31;102104.84;5069881;28;50589;-66
2022/02/10 02:30:51;;;;;;;;;42.25;37.00;;;;;8.31;71.29;102096.09;5070312;28;50443;-65
2022/02/10 03:06:03;;;;;;;;;42.75;38.25;;;;;8.30;71.08;102070.75;5070434;28;49785;-64
2022/02/10 03:08:37;;;;;;;;;47.50;40.25;;;;;8.43;70.90;102085.38;5070381;28;49706;-64
2022/02/10 03:11:09;;;;;;;;;41.00;36.75;;;;;8.29;70.54;102066.31;5070452;27;49741;-64
2022/02/10 03:13:39;;;;;;;;;50.50;40.25;;;;;8.45;70.72;102088.06;5070154;28;49886;-64
2022/02/10 03:21:47;;;;;;;;;27.00;26.75;;;;;8.43;70.40;102084.47;5070280;28;50082;-64
2022/02/10 04:03:09;;;;;;;;;33.50;31.00;;;;;8.48;70.13;102119.59;5073047;28;49882;-66
2022/02/10 04:13:37;;;;;;;;;41.25;37.00;;;;;8.29;69.63;102109.88;5072615;27;49708;-65
2022/02/10 04:19:46;;;;;;;;;27.25;24.50;;;;;8.31;69.49;102121.34;5072676;28;50541;-66
2022/02/10 04:21:51;;;;;;;;;43.00;37.25;;;;;8.35;69.65;102123.34;5054597;27;49194;-66
2022/02/10 04:27:12;;;;;;;;;35.75;31.50;;;;;8.17;69.99;102098.81;5072592;28;49935;-66
2022/02/10 04:32:41;;;;;;;;;33.00;28.00;;;;;7.93;69.69;102059.22;5072482;28;49890;-67
2022/02/10 04:56:36;;;;;;;;;39.25;35.00;;;;;8.38;68.56;102153.97;5072356;28;49909;-66
2022/02/10 05:04:23;;;;;;;;;38.25;34.00;;;;;8.41;68.92;102147.22;5072106;27;49786;-66
2022/02/10 05:17:26;;;;;;;;;35.25;30.75;;;;;8.42;69.34;102140.25;5071940;28;49781;-66
2022/02/10 05:22:44;;;;;;;;;40.00;36.50;;;;;8.48;69.31;102151.00;5071472;27;49801;-66
2022/02/10 05:33:46;;;;;;;;;34.75;29.75;;;;;8.49;68.74;102151.13;5008283;28;50120;-66
2022/02/10 05:36:14;;;;;;;;;41.00;36.25;;;;;8.12;68.07;102100.28;5061462;28;49806;-67
2022/02/10 05:38:49;;;;;;;;;29.50;25.75;;;;;8.43;68.19;102147.28;5071626;28;49980;-66
2022/02/10 05:44:28;;;;;;;;;40.25;34.75;;;;;8.00;68.94;102072.66;5039226;28;49960;-65
2022/02/10 06:39:35;;;;;;;;;32.75;32.75;;;;;8.63;68.27;102187.56;5070450;28;50060;-67
2022/02/10 06:52:00;;;;;;;;;35.25;29.75;;;;;8.39;68.62;102159.28;5070402;27;50145;-66
2022/02/10 06:57:54;;;;;;;;;30.75;29.00;;;;;8.56;68.16;102189.84;5070651;28;50201;-68
2022/02/10 07:03:21;;;;;;;;;33.50;32.25;;;;;8.19;67.75;102133.78;5070461;27;49992;-69
2022/02/10 07:06:12;;;;;;;;;33.75;28.25;;;;;8.57;69.46;102196.00;5070186;28;50108;-68
2022/02/10 07:51:50;;;;;;;;;29.75;27.50;;;;;8.63;68.45;102212.03;5073373;28;49884;-70
2022/02/10 07:54:27;;;;;;;;;42.25;38.75;;;;;8.17;68.50;102118.00;5072899;28;50214;-66
2022/02/10 07:57:13;;;;;;;;;39.25;36.00;;;;;8.68;68.82;102207.00;5072742;27;49989;-66
2022/02/10 08:51:52;;;;;;;;;49.75;41.25;;;;;9.21;66.42;102206.22;5073560;27;49837;-66
2022/02/10 08:59:13;;;;;;;;;48.25;41.00;;;;;9.77;65.25;102271.88;5071945;28;50531;-66
2022/02/10 09:02:12;;;;;;;;;50.50;39.25;;;;;9.83;65.15;102263.38;5072456;27;49833;-68
2022/02/10 09:04:49;;;;;;;;;31.50;27.25;;;;;9.87;64.67;102255.75;5071590;27;49817;-69
2022/02/10 09:10:11;;;;;;;;;48.00;41.00;;;;;9.92;65.00;102258.59;5071613;27;49881;-66
2022/02/10 09:58:57;;;;;;;;;46.50;35.75;;;;;10.98;60.96;102278.31;5066772;27;49896;-68
2022/02/10 10:04:00;;;;;;;;;34.75;31.75;;;;;11.08;61.36;102279.59;5071234;28;50487;-67
2022/02/10 10:06:44;;;;;;;;;32.75;31.00;;;;;10.97;60.99;102267.75;5071085;27;49775;-67
2022/02/10 10:12:13;;;;;;;;;37.50;31.25;;;;;11.25;60.02;102294.38;5064521;28;50010;-67
2022/02/10 10:14:47;;;;;;;;;36.25;35.25;;;;;11.39;60.07;102287.09;5068387;28;49775;-66
2022/02/10 10:20:02;;;;;;;;;34.50;30.25;;;;;11.60;59.67;102289.69;5069595;27;49806;-66
2022/02/10 10:49:24;;;;;;;;;30.25;26.50;;;;;12.17;58.00;102291.16;5069641;27;50657;-67
2022/02/10 10:51:24;;;;;;;;;29.25;24.75;;;;;12.19;57.78;102285.94;5067796;27;49727;-67
2022/02/10 10:54:05;;;;;;;;;24.25;23.25;;;;;12.24;57.41;102279.09;5069937;27;50095;-65
2022/02/10 10:56:34;;;;;;;;;28.50;26.75;;;;;12.21;57.28;102279.88;5068092;28;49712;-65
2022/02/10 11:46:32;;;;;;;;;18.00;17.00;;;;;13.29;53.90;102216.09;5069504;28;49789;-62
2022/02/10 12:32:05;;;;;;;;;17.50;16.75;;;;;12.21;60.56;102200.91;5077992;28;49499;-68
2022/02/10 14:19:19;;;;;;;;;14.00;11.25;;;;;12.70;58.82;102139.41;5070974;27;49855;-69
2022/02/10 14:21:58;;;;;;;;;14.25;12.50;;;;;12.54;58.44;102119.53;5070767;27;49937;-69
2022/02/10 14:27:08;;;;;;;;;9.50;9.50;;;;;12.10;59.58;102030.25;5070462;27;50116;-68
2022/02/10 14:29:34;;;;;;;;;11.50;11.00;;;;;12.67;59.24;102128.78;5070747;27;49752;-69
2022/02/10 14:32:00;;;;;;;;;13.25;12.00;;;;;12.57;59.69;102126.69;5070271;28;49774;-68
2022/02/10 14:34:27;;;;;;;;;17.75;12.75;;;;;12.53;60.04;102114.22;5052702;28;50181;-67
2022/02/10 14:37:12;;;;;;;;;19.00;15.50;;;;;12.54;60.58;102121.28;5070370;27;49881;-67
2022/02/10 14:39:53;;;;;;;;;15.50;13.75;;;;;12.44;61.00;102127.97;5065164;28;49722;-68
2022/02/10 15:51:41;;;;;;;;;21.00;19.25;;;;;11.26;65.33;101964.94;5072719;27;49777;-72
2022/02/10 16:10:49;;;;;;;;;23.00;18.00;;;;;11.78;64.84;102019.47;5073103;28;49783;-71
2022/02/10 16:18:45;;;;;;;;;17.25;16.25;;;;;12.09;64.22;102068.84;5072912;27;49995;-70
2022/02/10 16:21:14;;;;;;;;;15.50;12.75;;;;;11.22;64.24;101949.00;5073038;27;49895;-72
2022/02/10 16:23:39;;;;;;;;;21.25;18.50;;;;;10.62;64.33;101833.81;5072640;27;49933;-72
2022/02/10 16:26:14;;;;;;;;;25.25;25.00;;;;;11.21;65.23;101968.25;5072516;27;49769;-72
2022/02/10 16:28:41;;;;;;;;;23.75;23.75;;;;;11.21;64.58;101941.97;5072356;27;49921;-72
2022/02/10 16:31:12;;;;;;;;;21.75;19.25;;;;;11.99;64.28;102088.66;5072433;28;49913;-72
2022/02/10 16:33:39;;;;;;;;;24.50;24.25;;;;;11.62;64.66;102032.88;5072208;27;50737;-72
2022/02/10 16:36:05;;;;;;;;;28.75;25.25;;;;;11.72;64.70;102054.31;5072454;28;49972;-66
2022/02/10 16:38:34;;;;;;;;;32.00;29.75;;;;;11.93;64.87;102092.81;5072723;27;49880;-66
2022/02/10 16:40:59;;;;;;;;;34.50;32.25;;;;;11.45;64.96;102020.00;5072658;28;49972;-69
2022/02/10 16:43:25;;;;;;;;;31.00;26.50;;;;;11.80;65.04;102080.06;5071995;27;49922;-69
2022/02/10 16:45:51;;;;;;;;;25.50;24.50;;;;;11.82;64.45;102104.69;5071352;28;49799;-68
2022/02/10 16:48:16;;;;;;;;;21.50;19.50;;;;;11.73;64.39;102102.56;5071728;28;49831;-68
2022/02/10 16:50:43;;;;;;;;;18.50;18.00;;;;;11.69;65.00;102108.56;5072312;27;49784;-67
2022/02/10 16:53:11;;;;;;;;;20.50;19.00;;;;;11.42;65.21;102072.47;5053668;28;52307;-67
2022/02/10 16:58:17;;;;;;;;;23.25;17.50;;;;;11.21;76.30;102091.78;5072284;28;49950;-67
2022/02/10 17:03:44;;;;;;;;;21.25;20.25;;;;;10.64;75.20;102083.34;5071896;27;49755;-71
2022/02/10 17:19:32;;;;;;;;;12.25;10.00;;;;;8.97;75.34;102093.25;5071856;27;50030;-66
2022/02/10 17:27:24;;;;;;;;;16.50;16.50;;;;;9.11;75.34;102162.94;5071253;27;49982;-66
2022/02/10 17:46:04;;;;;;;;;14.50;11.75;;;;;8.29;75.63;102168.34;5070895;27;50542;-65
2022/02/10 17:54:02;;;;;;;;;8.00;7.00;;;;;8.21;76.79;102163.56;5071591;28;49828;-66
2022/02/10 17:56:28;;;;;;;;;16.25;15.00;;;;;8.69;76.78;102230.69;5052665;28;51211;-66
2022/02/10 17:58:54;;;;;;;;;20.75;19.50;;;;;7.80;76.07;102098.59;5052453;28;49738;-66
2022/02/10 18:01:20;;;;;;;;;20.00;18.75;;;;;8.68;76.01;102236.69;5070871;27;49918;-68
2022/02/10 18:03:47;;;;;;;;;10.75;8.00;;;;;7.45;75.23;102064.53;5071225;28;49759;-67
2022/02/10 18:06:21;;;;;;;;;15.50;15.25;;;;;8.36;75.81;102207.97;5052632;28;51420;-70
2022/02/10 18:14:23;;;;;;;;;9.75;8.00;;;;;8.57;76.11;102266.66;5071424;28;49830;-68
2022/02/10 18:17:00;;;;;;;;;11.00;11.00;;;;;8.24;75.19;102230.00;5070673;28;50428;-65
2022/02/10 18:19:30;;;;;;;;;16.50;13.50;;;;;8.17;76.43;102221.75;5070977;28;49682;-66
2022/02/10 18:29:35;;;;;;;;;9.75;9.75;;;;;8.28;75.05;102297.38;5070797;27;49854;-64
2022/02/10 19:09:40;;;;;;;;;11.00;10.50;;;;;7.88;73.95;102366.59;5070621;27;49734;-64
2022/02/10 19:12:15;;;;;;;;;8.50;8.50;;;;;7.63;74.00;102335.53;5073785;27;49740;-66
2022/02/10 19:14:40;;;;;;;;;5.50;5.50;;;;;7.81;72.71;102369.66;5074052;28;49705;-66
2022/02/10 19:17:06;;;;;;;;;4.50;4.50;;;;;7.66;73.55;102354.00;5073855;28;49709;-66
2022/02/10 19:19:32;;;;;;;;;2.75;2.75;;;;;7.79;74.12;102373.91;5055592;28;51601;-67
2022/02/10 19:21:58;;;;;;;;;5.25;3.00;;;;;7.85;74.63;102372.56;5073467;28;49685;-65
2022/02/10 19:24:23;;;;;;;;;4.25;4.25;;;;;7.83;73.96;102374.19;5073776;28;49979;-66
2022/02/10 19:26:51;;;;;;;;;3.50;3.50;;;;;7.82;73.12;102368.88;5073834;28;49880;-67
2022/02/10 19:29:21;;;;;;;;;3.00;3.00;;;;;7.79;73.74;102366.06;5073598;28;49793;-65
2022/02/10 19:31:48;;;;;;;;;3.50;2.00;;;;;7.52;72.79;102316.59;5073133;28;49644;-64
2022/02/10 19:34:13;;;;;;;;;6.00;5.25;;;;;7.66;73.64;102356.63;5073826;27;49556;-71
2022/02/10 19:36:39;;;;;;;;;5.75;5.50;;;;;7.83;73.43;102386.34;5073988;28;50021;-65
2022/02/10 19:39:05;;;;;;;;;9.25;8.00;;;;;7.87;74.14;102393.56;5066839;28;50361;-69
2022/02/10 19:41:34;;;;;;;;;6.50;5.50;;;;;7.61;73.09;102368.50;5073523;27;49679;-67
2022/02/10 19:44:01;;;;;;;;;13.75;13.25;;;;;7.82;72.98;102403.75;5066749;28;49637;-66
2022/02/10 19:46:28;;;;;;;;;12.50;12.50;;;;;7.66;72.82;102374.91;5073240;28;49835;-66
2022/02/10 19:48:54;;;;;;;;;20.00;19.50;;;;;7.78;74.34;102407.00;5073061;28;49732;-65
2022/02/10 19:51:19;;;;;;;;;16.00;14.75;;;;;7.67;73.35;102388.06;5073364;28;49719;-67
2022/02/10 19:53:45;;;;;;;;;13.00;13.00;;;;;7.76;73.45;102408.63;5055195;28;49883;-65
2022/02/10 19:56:13;;;;;;;;;12.25;12.25;;;;;7.56;72.92;102386.53;5073366;27;49620;-64
2022/02/10 19:58:38;;;;;;;;;15.50;13.75;;;;;7.74;74.41;102413.75;5077005;28;49872;-64
2022/02/10 20:01:03;;;;;;;;;15.00;13.25;;;;;7.58;72.61;102390.16;5081042;27;49403;-65
2022/02/10 20:03:32;;;;;;;;;7.75;6.50;;;;;7.77;73.73;102415.66;5078345;28;49648;-66
2022/02/10 20:05:58;;;;;;;;;16.75;16.00;;;;;7.54;73.79;102371.59;5073417;28;49826;-63
2022/02/10 20:08:25;;;;;;;;;14.75;12.50;;;;;7.86;75.15;102410.94;5072802;27;49985;-70
2022/02/10 20:10:54;;;;;;;;;13.50;13.50;;;;;7.89;73.93;102410.22;5075809;28;49948;-65
2022/02/10 20:13:21;;;;;;;;;13.00;11.00;;;;;7.67;73.76;102380.22;5073032;28;49764;-66
2022/02/10 20:15:47;;;;;;;;;19.25;16.25;;;;;7.65;73.88;102387.09;5072553;27;50103;-65
2022/02/10 20:18:14;;;;;;;;;11.75;10.25;;;;;7.90;74.63;102419.88;5052655;28;51191;-65
2022/02/10 20:20:43;;;;;;;;;19.75;17.75;;;;;7.79;75.39;102397.44;5068420;28;49789;-66
2022/02/10 20:23:10;;;;;;;;;19.50;18.50;;;;;7.92;74.51;102410.41;5071457;28;49807;-65
2022/02/10 20:25:36;;;;;;;;;12.25;12.00;;;;;8.01;74.96;102405.72;5071270;27;49771;-67
2022/02/10 20:28:03;;;;;;;;;13.25;10.50;;;;;8.04;74.90;102400.66;5070413;27;49825;-65
2022/02/10 20:30:30;;;;;;;;;14.00;10.25;;;;;7.97;75.47;102393.25;5060494;28;50955;-65
2022/02/10 20:32:56;;;;;;;;;11.25;8.00;;;;;7.93;75.65;102400.03;5045684;28;49885;-67
2022/02/10 20:35:22;;;;;;;;;7.25;7.25;;;;;7.99;74.01;102418.69;5051394;28;49905;-64
2022/02/10 20:37:47;;;;;;;;;8.75;7.25;;;;;7.85;74.53;102421.34;5070682;27;50379;-66
2022/02/10 20:40:16;;;;;;;;;15.00;11.00;;;;;7.87;74.06;102441.50;5053092;28;49897;-65
2022/02/10 20:42:46;;;;;;;;;7.00;7.00;;;;;7.87;73.91;102438.00;5073623;27;49728;-65
2022/02/10 20:45:12;;;;;;;;;7.00;7.00;;;;;7.68;73.86;102422.94;5072389;27;50049;-67
2022/02/10 20:47:38;;;;;;;;;6.75;6.75;;;;;7.21;74.16;102350.47;5071351;27;50106;-63
2022/02/10 20:50:04;;;;;;;;;6.50;6.50;;;;;7.38;72.51;102382.84;5071481;27;50101;-63
2022/02/10 20:52:32;;;;;;;;;3.25;3.25;;;;;7.69;73.11;102464.84;5079793;27;49785;-63
2022/02/10 20:54:59;;;;;;;;;5.25;4.75;;;;;7.66;73.14;102456.84;5079926;27;49922;-65
2022/02/10 20:57:24;;;;;;;;;9.50;7.00;;;;;7.64;73.50;102455.84;5070143;27;50497;-66
2022/02/10 20:59:50;;;;;;;;;7.25;7.00;;;;;7.60;74.02;102458.19;5071772;28;49877;-65
2022/02/10 21:02:18;;;;;;;;;6.75;6.75;;;;;7.62;73.76;102449.63;5067563;28;50008;-64
2022/02/10 21:07:28;;;;;;;;;5.00;5.00;;;;;7.53;73.94;102430.81;5066931;28;50802;-66
2022/02/10 21:12:24;;;;;;;;;11.00;10.75;;;;;7.62;73.81;102467.00;5067216;28;50195;-66
2022/02/10 21:14:50;;;;;;;;;5.00;5.00;;;;;7.62;73.86;102451.31;5069510;28;49902;-66
2022/02/10 21:17:21;;;;;;;;;6.00;6.00;;;;;7.63;73.72;102471.47;5069208;28;50771;-64
2022/02/10 21:19:47;;;;;;;;;7.00;5.50;;;;;7.63;73.56;102474.97;5069638;28;49666;-63
2022/02/10 21:22:17;;;;;;;;;7.25;7.25;;;;;7.53;73.66;102448.16;5067785;28;49841;-64
2022/02/10 21:24:53;;;;;;;;;8.25;5.50;;;;;7.68;73.26;102472.63;5051041;28;49986;-66
2022/02/10 21:29:53;;;;;;;;;6.00;6.00;;;;;7.68;74.41;102463.06;5071464;27;49767;-64
2022/02/10 21:32:19;;;;;;;;;9.50;7.50;;;;;7.70;73.42;102471.88;5065348;27;50251;-64
2022/02/10 21:35:06;;;;;;;;;8.25;8.25;;;;;7.66;74.68;102459.47;5070147;28;51132;-64
2022/02/10 21:37:32;;;;;;;;;5.00;5.00;;;;;7.73;73.48;102476.41;5069913;28;50352;-63
2022/02/10 21:40:14;;;;;;;;;10.50;7.50;;;;;7.61;74.30;102459.97;5070447;28;50303;-63
2022/02/10 21:47:12;;;;;;;;;4.00;4.00;;;;;7.49;73.52;102449.69;5071565;28;49706;-64
2022/02/10 22:04:54;;;;;;;;;17.50;16.00;;;;;7.62;74.61;102493.16;5070100;28;49736;-63
2022/02/10 22:09:57;;;;;;;;;9.00;7.50;;;;;7.38;74.29;102443.84;5068484;27;49998;-63
2022/02/10 22:20:44;;;;;;;;;9.50;8.00;;;;;7.33;73.14;102466.16;5069747;27;50517;-65
2022/02/10 22:23:23;;;;;;;;;8.50;6.75;;;;;7.26;73.21;102471.84;5069395;27;50036;-64
2022/02/10 22:25:52;;;;;;;;;8.00;8.00;;;;;7.47;73.92;102500.97;5065287;27;50243;-63
2022/02/10 22:31:19;;;;;;;;;8.00;8.00;;;;;7.45;73.95;102511.34;5066847;27;50652;-64
2022/02/10 22:33:54;;;;;;;;;7.75;7.75;;;;;7.37;74.03;102504.75;5068951;28;49959;-64
2022/02/10 22:36:21;;;;;;;;;11.25;11.00;;;;;7.40;73.54;102512.75;5073630;27;49764;-64
2022/02/10 22:38:49;;;;;;;;;12.75;10.25;;;;;7.32;73.17;102520.94;5069897;27;49650;-64
2022/02/10 22:41:16;;;;;;;;;15.50;12.00;;;;;7.30;73.97;102520.84;5075023;27;49907;-64
2022/02/10 22:43:44;;;;;;;;;14.50;11.50;;;;;7.25;74.02;102513.53;5069542;28;49672;-64
2022/02/10 22:46:10;;;;;;;;;10.25;10.25;;;;;7.23;73.32;102508.19;5069871;28;49998;-64
2022/02/10 22:48:36;;;;;;;;;13.00;12.75;;;;;7.23;73.83;102515.13;5070858;28;50038;-64
2022/02/10 22:51:03;;;;;;;;;13.00;13.00;;;;;7.04;74.03;102484.34;5070414;28;49755;-64
2022/02/10 22:53:28;;;;;;;;;15.00;12.25;;;;;7.18;73.85;102513.16;5069941;28;49766;-64
2022/02/10 22:55:54;;;;;;;;;13.50;13.50;;;;;7.07;72.92;102503.75;5070101;28;50101;-64
2022/02/10 22:58:20;;;;;;;;;11.50;11.50;;;;;7.13;74.35;102513.66;5054646;28;49842;-64
2022/02/10 23:00:48;;;;;;;;;12.00;12.00;;;;;7.06;73.38;102508.88;5070117;28;50635;-64
2022/02/10 23:03:15;;;;;;;;;13.25;11.00;;;;;6.98;73.63;102521.44;5070366;28;49858;-64
2022/02/10 23:05:41;;;;;;;;;12.25;12.25;;;;;6.99;73.75;102530.19;5070383;27;50037;-65
2022/02/10 23:08:06;;;;;;;;;19.75;18.50;;;;;6.91;73.45;102514.03;5070451;28;49707;-64
2022/02/10 23:13:03;;;;;;;;;20.00;12.00;;;;;6.80;73.00;102522.88;5070273;28;49666;-64
2022/02/10 23:15:35;;;;;;;;;14.75;14.75;;;;;6.84;74.28;102536.22;5070176;28;49936;-64
2022/02/10 23:18:00;;;;;;;;;11.50;11.50;;;;;6.80;72.97;102538.53;5070479;28;49810;-64
2022/02/10 23:20:26;;;;;;;;;14.75;12.25;;;;;6.65;73.68;102522.78;5070071;28;50667;-64
2022/02/10 23:22:53;;;;;;;;;18.00;17.00;;;;;6.73;73.42;102546.78;5070149;28;50023;-65
2022/02/10 23:25:19;;;;;;;;;16.25;16.25;;;;;6.51;73.71;102514.06;5070050;28;49880;-64
2022/02/10 23:27:44;;;;;;;;;17.00;15.00;;;;;6.65;73.79;102556.72;5070361;28;50076;-64
2022/02/10 23:30:10;;;;;;;;;19.75;19.00;;;;;6.67;74.38;102560.34;5069695;28;50267;-64
2022/02/10 23:32:35;;;;;;;;;16.50;15.50;;;;;6.56;73.99;102544.00;5070129;28;49696;-64
2022/02/10 23:35:05;;;;;;;;;14.00;14.00;;;;;6.55;74.03;102549.09;5070168;28;50085;-65
2022/02/10 23:37:30;;;;;;;;;22.50;19.75;;;;;6.55;73.82;102568.25;5069603;28;49726;-65
2022/02/10 23:39:57;;;;;;;;;13.50;12.25;;;;;6.54;73.78;102568.16;5069857;28;49708;-64
2022/02/10 23:42:30;;;;;;;;;21.25;20.00;;;;;6.51;73.45;102570.56;5076420;27;49898;-64
2022/02/10 23:44:59;;;;;;;;;17.25;16.00;;;;;6.31;73.77;102545.78;5069710;28;49863;-64
2022/02/10 23:47:25;;;;;;;;;20.75;20.75;;;;;6.49;73.67;102566.97;5072157;27;49904;-65
2022/02/10 23:49:52;;;;;;;;;18.25;17.75;;;;;6.43;73.68;102563.94;5069705;28;50220;-64
2022/02/10 23:52:18;;;;;;;;;21.75;20.75;;;;;6.46;73.75;102577.19;5072031;27;49828;-64
2022/02/10 23:54:48;;;;;;;;;19.50;19.50;;;;;6.45;73.95;102588.41;5069816;27;49912;-64
2022/02/10 23:57:34;;;;;;;;;22.00;20.50;;;;;6.38;74.20;102579.31;5074164;27;49683;-65
